createdAt,value
2023-03-04T00:01:30.135Z,102742.94
2023-03-04T00:03:56.595Z,102750.72
2023-03-04T00:06:23.130Z,102736.88
2023-03-04T00:08:49.577Z,102743.78
2023-03-04T00:11:16.214Z,102745.53
2023-03-04T00:13:42.679Z,102750.75
2023-03-04T00:16:09.244Z,102746.44
2023-03-04T00:18:35.897Z,102747.34
2023-03-04T00:21:02.364Z,102747.34
2023-03-04T00:23:28.796Z,102744.75
2023-03-04T00:25:55.389Z,102741.25
2023-03-04T00:28:21.847Z,102741.28
2023-03-04T00:30:48.372Z,102739.56
2023-03-04T00:33:15.327Z,102742.16
2023-03-04T00:35:42.023Z,102743.84
2023-03-04T00:38:08.781Z,102746.44
2023-03-04T00:40:35.517Z,102745.59
2023-03-04T00:43:02.732Z,102740.41
2023-03-04T00:45:29.270Z,102739.56
2023-03-04T00:47:55.921Z,102738.72
2023-03-04T00:50:22.539Z,102742.19
2023-03-04T00:52:50.885Z,102737.84
2023-03-04T00:55:17.433Z,102742.16
2023-03-04T00:57:44.951Z,102749.97
2023-03-04T01:00:12.906Z,102749.94
2023-03-04T01:02:39.533Z,102743.91
2023-03-04T01:05:06.945Z,102750.00
2023-03-04T01:07:34.116Z,102745.66
2023-03-04T01:10:00.914Z,102740.50
2023-03-04T01:12:28.162Z,102743.06
2023-03-04T01:14:54.842Z,102742.19
2023-03-04T01:17:21.592Z,102747.38
2023-03-04T01:19:48.177Z,102739.63
2023-03-04T01:22:16.648Z,102737.94
2023-03-04T01:24:43.341Z,102735.34
2023-03-04T01:27:09.903Z,102737.94
2023-03-04T01:29:36.399Z,102736.19
2023-03-04T01:32:03.018Z,102732.72
2023-03-04T01:34:29.566Z,102726.69
2023-03-04T01:36:56.084Z,102719.78
2023-03-04T01:39:22.664Z,102720.59
2023-03-04T01:41:49.321Z,102722.34
2023-03-04T01:44:15.928Z,102718.00
2023-03-04T01:46:47.493Z,102720.59
2023-03-04T01:49:15.738Z,102717.16
2023-03-04T01:51:44.761Z,102713.72
2023-03-04T01:54:11.385Z,102710.22
2023-03-04T01:56:40.133Z,102706.78
2023-03-04T01:59:06.609Z,102705.06
2023-03-04T02:01:33.516Z,102692.94
2023-03-04T02:04:00.502Z,102702.47
2023-03-04T02:06:27.090Z,102691.25
2023-03-04T02:08:53.924Z,102686.91
2023-03-04T02:11:20.799Z,102692.06
2023-03-04T02:13:47.493Z,102686.06
2023-03-04T02:16:14.377Z,102675.66
2023-03-04T02:18:41.106Z,102681.72
2023-03-04T02:21:18.992Z,102679.13
2023-03-04T02:24:15.385Z,102673.94
2023-03-04T02:26:43.673Z,102671.34
2023-03-04T02:29:11.953Z,102672.22
2023-03-04T02:31:39.965Z,102672.22
2023-03-04T02:34:12.794Z,102671.34
2023-03-04T02:36:40.560Z,102669.66
2023-03-04T02:39:39.931Z,102669.66
2023-03-04T02:42:06.459Z,102666.16
2023-03-04T02:44:36.466Z,102660.13
2023-03-04T02:47:05.425Z,102657.53
2023-03-04T02:49:33.465Z,102657.53
2023-03-04T02:52:08.748Z,102658.38
2023-03-04T02:54:35.767Z,102659.31
2023-03-04T02:57:05.260Z,102657.56
2023-03-04T02:59:31.850Z,102649.81
2023-03-04T03:01:58.606Z,102655.88
2023-03-04T03:04:26.345Z,102652.38
2023-03-04T03:06:52.941Z,102650.66
2023-03-04T03:09:20.207Z,102649.81
2023-03-04T03:11:46.782Z,102648.09
2023-03-04T03:14:13.272Z,102642.91
2023-03-04T03:16:39.977Z,102639.47
2023-03-04T03:19:06.583Z,102642.06
2023-03-04T03:21:33.482Z,102629.13
2023-03-04T03:24:00.042Z,102629.97
2023-03-04T03:26:26.580Z,102629.94
2023-03-04T03:28:53.102Z,102629.13
2023-03-04T03:31:20.093Z,102629.97
2023-03-04T03:33:46.705Z,102627.38
2023-03-04T03:36:13.328Z,102624.81
2023-03-04T03:38:39.839Z,102622.22
2023-03-04T03:41:06.474Z,102630.81
2023-03-04T03:43:32.913Z,102621.28
2023-03-04T03:45:59.438Z,102618.69
2023-03-04T03:48:26.274Z,102623.88
2023-03-04T03:50:52.710Z,102627.38
2023-03-04T03:53:19.285Z,102623.06
2023-03-04T03:55:45.647Z,102620.44
2023-03-04T03:58:12.248Z,102624.78
2023-03-04T04:00:38.774Z,102620.44
2023-03-04T04:03:05.734Z,102627.38
2023-03-04T04:05:32.304Z,102634.31
2023-03-04T04:07:58.827Z,102629.97
2023-03-04T04:10:25.368Z,102636.91
2023-03-04T04:12:51.904Z,102641.22
2023-03-04T04:15:18.511Z,102634.34
2023-03-04T04:17:45.060Z,102641.28
2023-03-04T04:20:11.971Z,102637.00
2023-03-04T04:22:38.461Z,102632.66
2023-03-04T04:25:05.499Z,102633.53
2023-03-04T04:27:32.032Z,102635.28
2023-03-04T04:29:58.586Z,102639.56
2023-03-04T04:32:25.183Z,102640.44
2023-03-04T04:34:51.710Z,102639.56
2023-03-04T04:37:18.214Z,102640.44
2023-03-04T04:39:44.691Z,102636.16
2023-03-04T04:42:12.006Z,102646.53
2023-03-04T04:44:39.045Z,102642.19
2023-03-04T04:47:07.054Z,102639.59
2023-03-04T04:49:33.572Z,102643.94
2023-03-04T04:52:00.018Z,102648.19
2023-03-04T04:54:26.621Z,102641.28
2023-03-04T04:56:53.296Z,102643.03
2023-03-04T04:59:19.863Z,102641.31
2023-03-04T05:01:46.448Z,102637.84
2023-03-04T05:04:12.987Z,102637.84
2023-03-04T05:06:39.505Z,102631.78
2023-03-04T05:09:06.243Z,102631.78
2023-03-04T05:11:33.522Z,102636.13
2023-03-04T05:13:59.980Z,102629.22
2023-03-04T05:16:26.515Z,102631.81
2023-03-04T05:18:53.039Z,102639.59
2023-03-04T05:21:19.521Z,102636.16
2023-03-04T05:23:46.114Z,102633.56
2023-03-04T05:26:17.817Z,102637.00
2023-03-04T05:28:45.276Z,102624.94
2023-03-04T05:31:11.886Z,102630.97
2023-03-04T05:33:38.846Z,102636.16
2023-03-04T05:36:07.460Z,102642.19
2023-03-04T05:38:33.967Z,102631.81
2023-03-04T05:41:03.822Z,102636.19
2023-03-04T05:43:32.166Z,102633.59
2023-03-04T05:45:58.661Z,102637.94
2023-03-04T05:48:25.249Z,102642.25
2023-03-04T05:51:00.214Z,102637.94
2023-03-04T05:53:27.713Z,102638.81
2023-03-04T05:55:54.494Z,102631.91
2023-03-04T05:58:21.179Z,102635.38
2023-03-04T06:00:48.396Z,102637.09
2023-03-04T06:03:21.707Z,102636.22
2023-03-04T06:05:54.403Z,102635.41
2023-03-04T06:08:21.090Z,102643.16
2023-03-04T06:10:47.559Z,102639.69
2023-03-04T06:13:14.017Z,102637.97
2023-03-04T06:15:40.685Z,102639.72
2023-03-04T06:18:07.952Z,102632.78
2023-03-04T06:20:35.190Z,102633.69
2023-03-04T06:23:01.770Z,102632.78
2023-03-04T06:25:28.226Z,102631.06
2023-03-04T06:27:55.302Z,102638.00
2023-03-04T06:30:22.501Z,102638.00
2023-03-04T06:32:49.313Z,102638.84
2023-03-04T06:35:16.690Z,102630.22
2023-03-04T06:37:44.104Z,102636.25
2023-03-04T06:40:11.241Z,102643.16
2023-03-04T06:42:38.607Z,102639.72
2023-03-04T06:45:05.571Z,102651.81
2023-03-04T06:47:32.399Z,102645.75
2023-03-04T06:49:58.927Z,102652.66
2023-03-04T06:52:25.346Z,102648.34
2023-03-04T06:54:51.787Z,102641.41
2023-03-04T06:57:18.247Z,102650.91
2023-03-04T06:59:46.570Z,102648.34
2023-03-04T07:02:13.490Z,102644.00
2023-03-04T07:04:40.360Z,102653.50
2023-03-04T07:07:06.866Z,102650.88
2023-03-04T07:09:33.627Z,102655.16
2023-03-04T07:12:00.130Z,102655.13
2023-03-04T07:14:27.937Z,102658.56
2023-03-04T07:16:54.676Z,102665.47
2023-03-04T07:19:21.215Z,102662.91
2023-03-04T07:21:47.653Z,102658.56
2023-03-04T07:24:14.127Z,102656.78
2023-03-04T07:26:40.808Z,102659.31
2023-03-04T07:29:07.313Z,102665.28
2023-03-04T07:31:35.630Z,102665.28
2023-03-04T07:34:05.289Z,102662.59
2023-03-04T07:36:33.587Z,102653.78
2023-03-04T07:39:00.176Z,102661.50
2023-03-04T07:41:28.162Z,102669.28
2023-03-04T07:43:56.594Z,102667.53
2023-03-04T07:46:23.435Z,102664.88
2023-03-04T07:48:49.956Z,102664.03
2023-03-04T07:51:19.522Z,102668.19
2023-03-04T07:53:48.222Z,102673.31
2023-03-04T07:56:19.972Z,102662.84
2023-03-04T07:58:46.826Z,102673.16
2023-03-04T08:01:17.755Z,102674.88
2023-03-04T08:03:44.776Z,102674.88
2023-03-04T08:06:14.134Z,102682.63
2023-03-04T08:08:40.751Z,102676.50
2023-03-04T08:11:12.691Z,102675.63
2023-03-04T08:13:39.479Z,102675.50
2023-03-04T08:16:06.644Z,102678.00
2023-03-04T08:18:33.469Z,102682.31
2023-03-04T08:21:01.168Z,102690.13
2023-03-04T08:23:27.660Z,102681.47
2023-03-04T08:25:54.461Z,102690.25
2023-03-04T08:28:20.964Z,102692.06
2023-03-04T08:30:53.535Z,102687.69
2023-03-04T08:33:20.364Z,102689.25
2023-03-04T08:35:46.987Z,102683.25
2023-03-04T08:38:13.472Z,102691.91
2023-03-04T08:40:39.943Z,102693.53
2023-03-04T08:43:06.462Z,102683.69
2023-03-04T08:45:32.946Z,102688.03
2023-03-04T08:47:59.435Z,102694.88
2023-03-04T08:50:27.370Z,102687.94
2023-03-04T08:52:53.879Z,102690.53
2023-03-04T08:55:20.472Z,102699.28
2023-03-04T08:57:46.932Z,102688.00
2023-03-04T09:00:13.932Z,102682.75
2023-03-04T09:02:40.386Z,102688.69
2023-03-04T09:05:07.397Z,102686.94
2023-03-04T09:07:34.036Z,102675.66
2023-03-04T09:10:00.624Z,102687.75
2023-03-04T09:12:27.424Z,102682.38
2023-03-04T09:15:09.773Z,102689.09
2023-03-04T09:17:37.842Z,102677.66
2023-03-04T09:20:05.980Z,102676.78
2023-03-04T09:22:32.449Z,102675.66
2023-03-04T09:24:58.886Z,102676.25
2023-03-04T09:27:25.421Z,102675.47
2023-03-04T09:29:51.843Z,102685.22
2023-03-04T09:32:18.479Z,102686.94
2023-03-04T09:34:45.226Z,102671.50
2023-03-04T09:37:11.708Z,102676.78
2023-03-04T09:39:38.182Z,102667.22
2023-03-04T09:42:07.612Z,102671.50
2023-03-04T09:44:41.086Z,102666.97
2023-03-04T09:47:13.973Z,102669.56
2023-03-04T09:49:44.803Z,102662.44
2023-03-04T09:52:33.819Z,102660.13
2023-03-04T09:55:14.433Z,102658.50
2023-03-04T09:57:56.182Z,102655.66
2023-03-04T10:00:26.837Z,102653.72
2023-03-04T10:03:17.558Z,102655.25
2023-03-04T10:05:49.781Z,102651.28
2023-03-04T10:08:53.994Z,102641.06
2023-03-04T10:11:45.802Z,102645.31
2023-03-04T10:14:21.403Z,102642.88
2023-03-04T10:16:59.125Z,102642.16
2023-03-04T10:19:53.602Z,102645.28
2023-03-04T10:22:35.435Z,102650.47
2023-03-04T10:25:16.721Z,102638.28
2023-03-04T10:27:48.473Z,102640.09
2023-03-04T10:30:46.038Z,102632.94
2023-03-04T10:33:17.887Z,102635.31
2023-03-04T10:35:50.845Z,102628.09
2023-03-04T10:38:20.107Z,102632.84
2023-03-04T10:40:47.579Z,102633.31
2023-03-04T10:43:19.223Z,102623.66
2023-03-04T10:45:49.173Z,102635.06
2023-03-04T10:48:33.949Z,102622.41
2023-03-04T10:51:20.418Z,102631.75
2023-03-04T10:54:16.800Z,102620.41
2023-03-04T10:56:53.864Z,102615.25
2023-03-04T10:59:35.415Z,102615.09
2023-03-04T11:02:19.970Z,102620.34
2023-03-04T11:05:09.720Z,102623.59
2023-03-04T11:08:02.721Z,102620.47
2023-03-04T11:10:40.910Z,102623.00
2023-03-04T11:13:27.409Z,102623.13
2023-03-04T11:15:58.726Z,102622.69
2023-03-04T11:18:41.227Z,102621.31
2023-03-04T11:21:15.540Z,102616.00
2023-03-04T11:23:59.185Z,102621.31
2023-03-04T11:26:34.913Z,102625.13
2023-03-04T11:29:24.940Z,102635.91
2023-03-04T11:32:00.424Z,102634.56
2023-03-04T11:34:44.032Z,102633.94
2023-03-04T11:37:26.755Z,102634.81
2023-03-04T11:39:59.009Z,102624.19
2023-03-04T11:42:34.821Z,102622.06
2023-03-04T11:45:01.969Z,102622.03
2023-03-04T11:47:31.042Z,102614.00
2023-03-04T11:50:32.292Z,102606.53
2023-03-04T11:53:25.234Z,102608.16
2023-03-04T11:56:11.282Z,102602.09
2023-03-04T11:58:59.048Z,102602.75
2023-03-04T12:01:37.177Z,102589.13
2023-03-04T12:04:09.920Z,102583.50
2023-03-04T12:06:51.552Z,102574.09
2023-03-04T12:09:36.350Z,102587.19
2023-03-04T12:12:12.000Z,102589.47
2023-03-04T12:15:10.826Z,102580.31
2023-03-04T12:17:48.983Z,102566.84
2023-03-04T12:20:23.849Z,102580.06
2023-03-04T12:23:17.130Z,102591.81
2023-03-04T12:25:50.332Z,102575.56
2023-03-04T12:28:45.849Z,102575.63
2023-03-04T12:31:27.490Z,102582.50
2023-03-04T12:34:19.371Z,102577.09
2023-03-04T12:37:05.311Z,102576.81
2023-03-04T12:39:42.594Z,102563.47
2023-03-04T12:42:21.259Z,102572.06
2023-03-04T12:44:59.450Z,102566.38
2023-03-04T12:47:32.020Z,102555.66
2023-03-04T12:49:58.454Z,102559.94
2023-03-04T12:52:43.016Z,102557.13
2023-03-04T12:55:15.897Z,102550.81
2023-03-04T12:57:43.435Z,102553.38
2023-03-04T13:00:41.856Z,102550.00
2023-03-04T13:03:32.355Z,102543.19
2023-03-04T13:06:14.438Z,102542.59
2023-03-04T13:08:49.809Z,102539.38
2023-03-04T13:11:28.726Z,102549.56
2023-03-04T13:14:15.036Z,102549.13
2023-03-04T13:16:49.712Z,102551.88
2023-03-04T13:19:44.486Z,102554.69
2023-03-04T13:22:28.961Z,102550.38
2023-03-04T13:24:57.640Z,102545.09
2023-03-04T13:28:03.100Z,102547.44
2023-03-04T13:30:32.788Z,102538.97
2023-03-04T13:33:08.453Z,102541.97
2023-03-04T13:36:03.981Z,102545.28
2023-03-04T13:38:34.807Z,102538.16
2023-03-04T13:41:19.781Z,102533.50
2023-03-04T13:43:56.148Z,102535.84
2023-03-04T13:46:27.527Z,102534.94
2023-03-04T13:48:57.161Z,102528.03
2023-03-04T13:51:43.841Z,102531.28
2023-03-04T13:54:19.180Z,102526.81
2023-03-04T13:56:47.792Z,102522.88
2023-03-04T13:59:32.499Z,102521.38
2023-03-04T14:02:25.689Z,102515.47
2023-03-04T14:04:59.676Z,102513.84
2023-03-04T14:07:29.546Z,102513.13
2023-03-04T14:10:00.499Z,102522.66
2023-03-04T14:12:35.368Z,102520.88
2023-03-04T14:15:18.654Z,102512.34
2023-03-04T14:17:49.392Z,102505.38
2023-03-04T14:20:28.846Z,102511.31
2023-03-04T14:22:56.056Z,102510.47
2023-03-04T14:25:26.622Z,102511.13
2023-03-04T14:28:11.506Z,102510.88
2023-03-04T14:30:43.419Z,102509.09
2023-03-04T14:33:18.568Z,102506.59
2023-03-04T14:35:50.550Z,102498.19
2023-03-04T14:38:24.012Z,102500.88
2023-03-04T14:41:05.769Z,102505.25
2023-03-04T14:43:37.527Z,102502.63
2023-03-04T14:46:11.496Z,102498.53
2023-03-04T14:48:38.309Z,102496.91
2023-03-04T14:51:05.112Z,102490.88
2023-03-04T14:53:33.547Z,102472.50
2023-03-04T14:56:04.368Z,102478.16
2023-03-04T14:58:33.095Z,102480.84
2023-03-04T15:01:22.905Z,102481.59
2023-03-04T15:04:04.124Z,102477.09
2023-03-04T15:06:34.514Z,102477.34
2023-03-04T15:09:07.545Z,102480.09
2023-03-04T15:11:50.266Z,102476.66
2023-03-04T15:14:45.869Z,102476.00
2023-03-04T15:17:38.365Z,102475.22
2023-03-04T15:20:08.637Z,102481.34
2023-03-04T15:22:44.297Z,102476.00
2023-03-04T15:25:20.401Z,102466.53
2023-03-04T15:27:47.905Z,102476.22
2023-03-04T15:30:27.583Z,102474.66
2023-03-04T15:32:56.176Z,102476.69
2023-03-04T15:35:24.600Z,102474.13
2023-03-04T15:37:54.596Z,102467.94
2023-03-04T15:40:31.674Z,102466.91
2023-03-04T15:43:01.658Z,102464.28
2023-03-04T15:45:31.308Z,102461.56
2023-03-04T15:47:58.237Z,102459.75
2023-03-04T15:50:28.864Z,102461.44
2023-03-04T15:53:02.401Z,102458.19
2023-03-04T15:55:31.406Z,102456.63
2023-03-04T15:58:00.490Z,102459.28
2023-03-04T16:00:27.497Z,102452.44
2023-03-04T16:02:54.060Z,102450.75
2023-03-04T16:05:21.592Z,102454.16
2023-03-04T16:07:50.202Z,102454.16
2023-03-04T16:10:27.451Z,102441.06
2023-03-04T16:12:54.662Z,102445.53
2023-03-04T16:15:24.188Z,102450.81
2023-03-04T16:17:51.180Z,102442.22
2023-03-04T16:20:23.763Z,102442.22
2023-03-04T16:22:55.580Z,102444.84
2023-03-04T16:25:24.007Z,102443.13
2023-03-04T16:27:56.424Z,102453.66
2023-03-04T16:30:25.878Z,102442.59
2023-03-04T16:32:53.197Z,102440.97
2023-03-04T16:35:21.586Z,102436.59
2023-03-04T16:37:48.636Z,102445.31
2023-03-04T16:40:17.836Z,102445.31
2023-03-04T16:42:44.504Z,102440.97
2023-03-04T16:45:17.046Z,102443.56
2023-03-04T16:47:43.869Z,102433.22
2023-03-04T16:50:24.894Z,102436.78
2023-03-04T16:52:51.403Z,102446.38
2023-03-04T16:55:21.747Z,102440.34
2023-03-04T16:57:48.710Z,102433.44
2023-03-04T17:00:17.295Z,102434.34
2023-03-04T17:02:44.820Z,102436.13
2023-03-04T17:05:20.085Z,102437.94
2023-03-04T17:07:48.477Z,102436.28
2023-03-04T17:10:16.539Z,102432.94
2023-03-04T17:12:43.670Z,102432.94
2023-03-04T17:15:12.608Z,102433.84
2023-03-04T17:17:40.461Z,102442.56
2023-03-04T17:20:08.981Z,102446.97
2023-03-04T17:22:35.745Z,102442.66
2023-03-04T17:25:02.957Z,102447.97
2023-03-04T17:27:30.607Z,102453.22
2023-03-04T17:29:57.707Z,102447.34
2023-03-04T17:32:26.117Z,102448.34
2023-03-04T17:34:55.669Z,102444.97
2023-03-04T17:37:22.632Z,102451.97
2023-03-04T17:39:49.246Z,102460.72
2023-03-04T17:42:17.071Z,102465.91
2023-03-04T17:44:45.332Z,102476.25
2023-03-04T17:47:12.520Z,102471.97
2023-03-04T17:49:39.232Z,102475.47
2023-03-04T17:52:06.156Z,102481.56
2023-03-04T17:54:32.848Z,102482.50
2023-03-04T17:56:59.400Z,102479.09
2023-03-04T17:59:26.430Z,102476.56
2023-03-04T18:01:54.369Z,102479.19
2023-03-04T18:04:21.575Z,102471.44
2023-03-04T18:06:48.707Z,102467.09
2023-03-04T18:09:15.265Z,102477.50
2023-03-04T18:11:43.648Z,102478.34
2023-03-04T18:14:12.630Z,102486.19
2023-03-04T18:16:40.200Z,102487.88
2023-03-04T18:19:11.526Z,102490.53
2023-03-04T18:21:38.117Z,102487.94
2023-03-04T18:24:05.189Z,102492.28
2023-03-04T18:26:33.002Z,102494.06
2023-03-04T18:29:00.177Z,102486.31
2023-03-04T18:31:32.493Z,102482.88
2023-03-04T18:34:02.968Z,102486.38
2023-03-04T18:36:31.274Z,102483.81
2023-03-04T18:38:59.759Z,102484.69
2023-03-04T18:41:27.883Z,102487.31
2023-03-04T18:43:54.949Z,102475.22
2023-03-04T18:46:42.696Z,102471.81
2023-03-04T18:49:14.528Z,102477.91
2023-03-04T18:51:42.297Z,102480.53
2023-03-04T18:54:08.913Z,102475.38
2023-03-04T18:56:48.377Z,102472.00
2023-03-04T18:59:28.049Z,102471.16
2023-03-04T19:01:56.095Z,102472.97
2023-03-04T19:04:27.265Z,102476.41
2023-03-04T19:06:54.997Z,102478.13
2023-03-04T19:09:23.111Z,102474.66
2023-03-04T19:11:50.357Z,102466.91
2023-03-04T19:14:17.320Z,102470.38
2023-03-04T19:16:45.236Z,102465.22
2023-03-04T19:19:13.268Z,102467.81
2023-03-04T19:21:40.537Z,102461.81
2023-03-04T19:24:08.385Z,102464.50
2023-03-04T19:26:36.578Z,102465.44
2023-03-04T19:29:05.823Z,102460.31
2023-03-04T19:31:41.316Z,102462.91
2023-03-04T19:34:09.623Z,102459.47
2023-03-04T19:36:36.832Z,102468.09
2023-03-04T19:39:04.107Z,102455.09
2023-03-04T19:41:30.568Z,102457.72
2023-03-04T19:43:58.593Z,102459.44
2023-03-04T19:46:27.445Z,102465.50
2023-03-04T19:48:54.724Z,102466.44
2023-03-04T19:51:29.334Z,102457.81
2023-03-04T19:53:56.975Z,102464.69
2023-03-04T19:56:24.624Z,102455.16
2023-03-04T19:58:56.729Z,102452.56
2023-03-04T20:01:29.508Z,102466.44
2023-03-04T20:04:02.522Z,102464.72
2023-03-04T20:06:30.001Z,102468.13
2023-03-04T20:09:00.454Z,102469.88
2023-03-04T20:11:28.452Z,102465.59
2023-03-04T20:13:58.174Z,102451.75
2023-03-04T20:16:25.127Z,102462.19
2023-03-04T20:18:52.501Z,102456.16
2023-03-04T20:21:19.388Z,102470.91
2023-03-04T20:23:46.120Z,102460.59
2023-03-04T20:26:12.863Z,102468.41
2023-03-04T20:28:39.296Z,102464.09
2023-03-04T20:31:15.752Z,102457.19
2023-03-04T20:33:42.390Z,102458.03
2023-03-04T20:36:08.897Z,102461.50
2023-03-04T20:38:35.446Z,102464.09
2023-03-04T20:41:02.042Z,102463.22
2023-03-04T20:43:28.556Z,102464.09
2023-03-04T20:45:55.275Z,102465.00
2023-03-04T20:48:22.894Z,102468.47
2023-03-04T20:50:49.391Z,102470.19
2023-03-04T20:53:15.872Z,102466.75
2023-03-04T20:55:42.372Z,102462.44
2023-03-04T20:58:08.795Z,102457.25
2023-03-04T21:00:38.137Z,102457.28
2023-03-04T21:03:04.803Z,102457.31
2023-03-04T21:05:31.387Z,102454.78
2023-03-04T21:07:58.648Z,102459.13
2023-03-04T21:10:25.044Z,102449.66
2023-03-04T21:12:51.848Z,102447.97
2023-03-04T21:15:18.462Z,102443.69
2023-03-04T21:17:44.920Z,102453.19
2023-03-04T21:20:15.057Z,102450.66
2023-03-04T21:22:41.613Z,102442.88
2023-03-04T21:25:08.816Z,102438.53
2023-03-04T21:27:38.704Z,102440.25
2023-03-04T21:30:05.849Z,102440.25
2023-03-04T21:32:32.320Z,102435.94
2023-03-04T21:34:59.004Z,102438.59
2023-03-04T21:37:25.931Z,102430.00
2023-03-04T21:39:52.913Z,102430.88
2023-03-04T21:42:19.512Z,102435.25
2023-03-04T21:44:50.757Z,102434.41
2023-03-04T21:47:19.498Z,102429.22
2023-03-04T21:49:46.053Z,102428.38
2023-03-04T21:52:13.136Z,102426.66
2023-03-04T21:54:39.629Z,102428.38
2023-03-04T21:57:06.118Z,102423.16
2023-03-04T21:59:32.607Z,102424.00
2023-03-04T22:01:59.135Z,102435.25
2023-03-04T22:04:25.606Z,102431.81
2023-03-04T22:06:52.016Z,102430.06
2023-03-04T22:09:18.497Z,102421.47
2023-03-04T22:11:45.009Z,102424.97
2023-03-04T22:14:11.780Z,102420.63
2023-03-04T22:16:48.878Z,102418.91
2023-03-04T22:19:21.113Z,102417.22
2023-03-04T22:21:47.568Z,102411.19
2023-03-04T22:24:14.104Z,102412.91
2023-03-04T22:26:40.518Z,102408.63
2023-03-04T22:29:06.973Z,102400.88
2023-03-04T22:31:36.767Z,102400.03
2023-03-04T22:34:09.137Z,102401.72
2023-03-04T22:36:38.631Z,102398.25
2023-03-04T22:39:07.403Z,102392.22
2023-03-04T22:41:34.662Z,102395.66
2023-03-04T22:44:01.693Z,102400.84
2023-03-04T22:46:30.865Z,102395.69
2023-03-04T22:48:59.907Z,102395.69
2023-03-04T22:51:27.410Z,102391.41
2023-03-04T22:53:55.044Z,102393.97
2023-03-04T22:56:21.754Z,102388.81
2023-03-04T22:58:48.583Z,102388.00
2023-03-04T23:01:16.388Z,102389.72
2023-03-04T23:03:44.574Z,102390.63
2023-03-04T23:06:21.378Z,102386.31
2023-03-04T23:08:49.809Z,102375.09
2023-03-04T23:11:20.953Z,102375.13
2023-03-04T23:13:48.577Z,102380.28
2023-03-04T23:16:16.343Z,102367.34
2023-03-04T23:18:44.303Z,102365.69
2023-03-04T23:21:14.261Z,102362.25
2023-03-04T23:23:41.826Z,102355.34
2023-03-04T23:26:26.850Z,102357.13
2023-03-04T23:28:56.758Z,102353.66
2023-03-04T23:31:23.546Z,102346.75
2023-03-04T23:33:50.251Z,102349.38
2023-03-04T23:36:18.941Z,102346.81
2023-03-04T23:38:47.629Z,102347.69
2023-03-04T23:41:19.557Z,102351.19
2023-03-04T23:43:47.296Z,102346.84
2023-03-04T23:46:14.924Z,102346.84
2023-03-04T23:48:45.486Z,102344.28
2023-03-04T23:51:13.074Z,102345.19
2023-03-04T23:53:39.503Z,102343.44
2023-03-04T23:56:10.282Z,102342.59
2023-03-04T23:58:36.983Z,102336.50
